sensor_id;sensor_type;location;lat;lon;timestamp;temperature;humidity
15113;DHT22;7657;50.140;7.076;2023-04-06T00:00:15;6.50;85.00
15113;DHT22;7657;50.140;7.076;2023-04-06T00:02:43;6.50;85.20
15113;DHT22;7657;50.140;7.076;2023-04-06T00:05:10;6.40;85.00
15113;DHT22;7657;50.140;7.076;2023-04-06T00:07:37;6.30;85.30
15113;DHT22;7657;50.140;7.076;2023-04-06T00:10:05;6.20;85.80
15113;DHT22;7657;50.140;7.076;2023-04-06T00:12:32;6.20;85.60
15113;DHT22;7657;50.140;7.076;2023-04-06T00:14:59;6.20;85.50
15113;DHT22;7657;50.140;7.076;2023-04-06T00:17:28;6.20;85.60
15113;DHT22;7657;50.140;7.076;2023-04-06T00:19:55;6.10;86.10
15113;DHT22;7657;50.140;7.076;2023-04-06T00:22:22;6.20;86.20
15113;DHT22;7657;50.140;7.076;2023-04-06T00:24:49;6.10;86.50
15113;DHT22;7657;50.140;7.076;2023-04-06T00:27:16;6.10;86.10
15113;DHT22;7657;50.140;7.076;2023-04-06T00:29:43;6.20;86.70
15113;DHT22;7657;50.140;7.076;2023-04-06T00:32:10;6.10;86.80
15113;DHT22;7657;50.140;7.076;2023-04-06T00:34:39;6.00;86.40
15113;DHT22;7657;50.140;7.076;2023-04-06T00:37:06;5.90;86.80
15113;DHT22;7657;50.140;7.076;2023-04-06T00:39:33;5.90;86.70
15113;DHT22;7657;50.140;7.076;2023-04-06T00:42:01;5.90;87.20
15113;DHT22;7657;50.140;7.076;2023-04-06T00:44:34;5.90;87.00
15113;DHT22;7657;50.140;7.076;2023-04-06T00:47:01;6.00;87.00
15113;DHT22;7657;50.140;7.076;2023-04-06T00:49:28;5.90;87.40
15113;DHT22;7657;50.140;7.076;2023-04-06T00:51:56;6.00;88.00
15113;DHT22;7657;50.140;7.076;2023-04-06T00:54:23;5.90;87.40
15113;DHT22;7657;50.140;7.076;2023-04-06T00:56:50;6.00;87.80
15113;DHT22;7657;50.140;7.076;2023-04-06T00:59:17;5.90;87.80
15113;DHT22;7657;50.140;7.076;2023-04-06T01:01:45;5.80;88.30
15113;DHT22;7657;50.140;7.076;2023-04-06T01:04:12;5.90;88.70
15113;DHT22;7657;50.140;7.076;2023-04-06T01:06:39;5.90;88.30
15113;DHT22;7657;50.140;7.076;2023-04-06T01:09:07;5.90;88.60
15113;DHT22;7657;50.140;7.076;2023-04-06T01:11:35;5.80;88.60
15113;DHT22;7657;50.140;7.076;2023-04-06T01:14:03;5.90;89.00
15113;DHT22;7657;50.140;7.076;2023-04-06T01:16:30;5.80;88.80
15113;DHT22;7657;50.140;7.076;2023-04-06T01:18:57;5.90;88.20
15113;DHT22;7657;50.140;7.076;2023-04-06T01:21:24;6.00;89.00
15113;DHT22;7657;50.140;7.076;2023-04-06T01:23:53;6.00;88.70
15113;DHT22;7657;50.140;7.076;2023-04-06T01:26:20;6.10;88.90
15113;DHT22;7657;50.140;7.076;2023-04-06T01:28:47;6.10;89.00
15113;DHT22;7657;50.140;7.076;2023-04-06T01:31:14;6.10;88.80
15113;DHT22;7657;50.140;7.076;2023-04-06T01:33:41;6.00;88.10
15113;DHT22;7657;50.140;7.076;2023-04-06T01:36:08;6.00;88.30
15113;DHT22;7657;50.140;7.076;2023-04-06T01:38:35;5.90;88.60
15113;DHT22;7657;50.140;7.076;2023-04-06T01:41:03;5.90;88.50
15113;DHT22;7657;50.140;7.076;2023-04-06T01:43:31;5.80;88.50
15113;DHT22;7657;50.140;7.076;2023-04-06T01:45:57;5.70;88.90
15113;DHT22;7657;50.140;7.076;2023-04-06T01:48:26;5.70;89.00
15113;DHT22;7657;50.140;7.076;2023-04-06T01:50:53;5.70;88.50
15113;DHT22;7657;50.140;7.076;2023-04-06T01:53:20;5.70;88.70
15113;DHT22;7657;50.140;7.076;2023-04-06T01:55:47;5.80;88.40
15113;DHT22;7657;50.140;7.076;2023-04-06T01:58:15;5.90;88.50
15113;DHT22;7657;50.140;7.076;2023-04-06T02:00:42;5.90;88.80
15113;DHT22;7657;50.140;7.076;2023-04-06T02:03:09;5.60;87.80
15113;DHT22;7657;50.140;7.076;2023-04-06T02:05:36;5.50;88.10
15113;DHT22;7657;50.140;7.076;2023-04-06T02:08:04;5.50;87.90
15113;DHT22;7657;50.140;7.076;2023-04-06T02:10:31;5.40;88.20
15113;DHT22;7657;50.140;7.076;2023-04-06T02:12:58;5.30;88.90
15113;DHT22;7657;50.140;7.076;2023-04-06T02:15:27;5.30;89.20
15113;DHT22;7657;50.140;7.076;2023-04-06T02:17:54;5.30;89.20
15113;DHT22;7657;50.140;7.076;2023-04-06T02:20:21;5.30;89.90
15113;DHT22;7657;50.140;7.076;2023-04-06T02:22:48;5.30;90.00
15113;DHT22;7657;50.140;7.076;2023-04-06T02:25:15;5.40;90.10
15113;DHT22;7657;50.140;7.076;2023-04-06T02:27:42;5.40;89.60
15113;DHT22;7657;50.140;7.076;2023-04-06T02:30:10;5.40;89.30
15113;DHT22;7657;50.140;7.076;2023-04-06T02:32:38;5.20;89.90
15113;DHT22;7657;50.140;7.076;2023-04-06T02:35:06;5.30;90.00
15113;DHT22;7657;50.140;7.076;2023-04-06T02:37:33;5.30;90.20
15113;DHT22;7657;50.140;7.076;2023-04-06T02:40:00;5.30;90.40
15113;DHT22;7657;50.140;7.076;2023-04-06T02:42:27;5.30;90.10
15113;DHT22;7657;50.140;7.076;2023-04-06T02:44:54;5.30;90.20
15113;DHT22;7657;50.140;7.076;2023-04-06T02:47:21;5.20;90.40
15113;DHT22;7657;50.140;7.076;2023-04-06T02:49:49;5.20;90.40
15113;DHT22;7657;50.140;7.076;2023-04-06T02:52:16;5.20;90.50
15113;DHT22;7657;50.140;7.076;2023-04-06T02:54:43;5.30;90.60
15113;DHT22;7657;50.140;7.076;2023-04-06T02:57:10;5.20;90.70
15113;DHT22;7657;50.140;7.076;2023-04-06T02:59:37;5.20;90.90
15113;DHT22;7657;50.140;7.076;2023-04-06T03:02:04;5.20;91.00
15113;DHT22;7657;50.140;7.076;2023-04-06T03:04:31;5.10;91.10
15113;DHT22;7657;50.140;7.076;2023-04-06T03:07:00;5.10;91.00
15113;DHT22;7657;50.140;7.076;2023-04-06T03:09:27;5.20;91.10
15113;DHT22;7657;50.140;7.076;2023-04-06T03:11:54;5.20;91.60
15113;DHT22;7657;50.140;7.076;2023-04-06T03:14:21;5.20;91.50
15113;DHT22;7657;50.140;7.076;2023-04-06T03:16:48;5.10;91.30
15113;DHT22;7657;50.140;7.076;2023-04-06T03:19:15;5.10;91.30
15113;DHT22;7657;50.140;7.076;2023-04-06T03:21:42;5.10;91.30
15113;DHT22;7657;50.140;7.076;2023-04-06T03:24:11;5.00;91.20
15113;DHT22;7657;50.140;7.076;2023-04-06T03:26:39;5.10;91.40
15113;DHT22;7657;50.140;7.076;2023-04-06T03:29:06;5.10;91.40
15113;DHT22;7657;50.140;7.076;2023-04-06T03:31:33;5.10;91.70
15113;DHT22;7657;50.140;7.076;2023-04-06T03:34:00;5.10;91.60
15113;DHT22;7657;50.140;7.076;2023-04-06T03:36:27;5.10;91.70
15113;DHT22;7657;50.140;7.076;2023-04-06T03:38:54;5.10;91.70
15113;DHT22;7657;50.140;7.076;2023-04-06T03:41:22;5.00;92.20
15113;DHT22;7657;50.140;7.076;2023-04-06T03:43:49;5.10;92.10
15113;DHT22;7657;50.140;7.076;2023-04-06T03:46:16;5.10;92.10
15113;DHT22;7657;50.140;7.076;2023-04-06T03:48:43;5.00;92.00
15113;DHT22;7657;50.140;7.076;2023-04-06T03:51:10;5.00;92.20
15113;DHT22;7657;50.140;7.076;2023-04-06T03:53:37;5.00;92.30
15113;DHT22;7657;50.140;7.076;2023-04-06T03:56:05;5.00;92.50
15113;DHT22;7657;50.140;7.076;2023-04-06T03:58:33;5.00;92.50
15113;DHT22;7657;50.140;7.076;2023-04-06T04:01:00;4.90;92.80
15113;DHT22;7657;50.140;7.076;2023-04-06T04:03:27;4.90;92.80
15113;DHT22;7657;50.140;7.076;2023-04-06T04:05:54;4.90;92.80
15113;DHT22;7657;50.140;7.076;2023-04-06T04:08:21;4.90;93.00
15113;DHT22;7657;50.140;7.076;2023-04-06T04:10:48;4.80;93.00
15113;DHT22;7657;50.140;7.076;2023-04-06T04:13:15;4.80;93.40
15113;DHT22;7657;50.140;7.076;2023-04-06T04:15:44;4.80;93.20
15113;DHT22;7657;50.140;7.076;2023-04-06T04:18:13;4.80;93.30
15113;DHT22;7657;50.140;7.076;2023-04-06T04:20:40;4.80;93.30
15113;DHT22;7657;50.140;7.076;2023-04-06T04:23:07;4.80;93.40
15113;DHT22;7657;50.140;7.076;2023-04-06T04:25:34;4.80;93.70
15113;DHT22;7657;50.140;7.076;2023-04-06T04:28:01;4.80;93.50
15113;DHT22;7657;50.140;7.076;2023-04-06T04:30:28;4.70;93.70
15113;DHT22;7657;50.140;7.076;2023-04-06T04:32:56;4.70;93.70
15113;DHT22;7657;50.140;7.076;2023-04-06T04:35:23;4.70;93.90
15113;DHT22;7657;50.140;7.076;2023-04-06T04:37:50;4.60;93.90
15113;DHT22;7657;50.140;7.076;2023-04-06T04:40:17;4.60;94.00
15113;DHT22;7657;50.140;7.076;2023-04-06T04:42:44;4.60;94.20
15113;DHT22;7657;50.140;7.076;2023-04-06T04:45:12;4.50;94.40
15113;DHT22;7657;50.140;7.076;2023-04-06T04:47:39;4.60;94.70
15113;DHT22;7657;50.140;7.076;2023-04-06T04:50:08;4.60;94.80
15113;DHT22;7657;50.140;7.076;2023-04-06T04:52:35;4.50;94.60
15113;DHT22;7657;50.140;7.076;2023-04-06T04:55:02;4.50;94.80
15113;DHT22;7657;50.140;7.076;2023-04-06T04:57:29;4.50;94.80
15113;DHT22;7657;50.140;7.076;2023-04-06T04:59:56;4.50;95.00
15113;DHT22;7657;50.140;7.076;2023-04-06T05:02:23;4.40;95.20
15113;DHT22;7657;50.140;7.076;2023-04-06T05:04:50;4.50;95.20
15113;DHT22;7657;50.140;7.076;2023-04-06T05:07:19;4.50;95.30
15113;DHT22;7657;50.140;7.076;2023-04-06T05:09:46;4.60;95.40
15113;DHT22;7657;50.140;7.076;2023-04-06T05:12:13;4.50;95.60
15113;DHT22;7657;50.140;7.076;2023-04-06T05:14:40;4.50;95.50
15113;DHT22;7657;50.140;7.076;2023-04-06T05:17:07;4.40;95.80
15113;DHT22;7657;50.140;7.076;2023-04-06T05:19:34;4.40;96.00
15113;DHT22;7657;50.140;7.076;2023-04-06T05:22:01;4.40;95.90
15113;DHT22;7657;50.140;7.076;2023-04-06T05:24:30;4.50;96.10
15113;DHT22;7657;50.140;7.076;2023-04-06T05:26:57;4.50;95.90
15113;DHT22;7657;50.140;7.076;2023-04-06T05:29:25;4.50;96.00
15113;DHT22;7657;50.140;7.076;2023-04-06T05:31:52;4.60;96.20
15113;DHT22;7657;50.140;7.076;2023-04-06T05:34:20;4.60;96.20
15113;DHT22;7657;50.140;7.076;2023-04-06T05:36:47;4.60;96.10
15113;DHT22;7657;50.140;7.076;2023-04-06T05:39:14;4.70;96.10
15113;DHT22;7657;50.140;7.076;2023-04-06T05:41:42;4.80;96.40
15113;DHT22;7657;50.140;7.076;2023-04-06T05:44:09;4.70;96.70
15113;DHT22;7657;50.140;7.076;2023-04-06T05:46:36;4.70;97.20
15113;DHT22;7657;50.140;7.076;2023-04-06T05:49:03;4.70;97.00
15113;DHT22;7657;50.140;7.076;2023-04-06T05:51:30;4.60;97.40
15113;DHT22;7657;50.140;7.076;2023-04-06T05:53:57;4.50;97.70
15113;DHT22;7657;50.140;7.076;2023-04-06T05:56:25;4.50;98.00
15113;DHT22;7657;50.140;7.076;2023-04-06T05:58:53;4.50;98.50
15113;DHT22;7657;50.140;7.076;2023-04-06T06:01:20;4.50;98.70
15113;DHT22;7657;50.140;7.076;2023-04-06T06:03:47;4.50;99.10
15113;DHT22;7657;50.140;7.076;2023-04-06T06:06:14;4.50;99.30
15113;DHT22;7657;50.140;7.076;2023-04-06T06:08:41;4.60;99.50
15113;DHT22;7657;50.140;7.076;2023-04-06T06:11:08;4.70;99.80
15113;DHT22;7657;50.140;7.076;2023-04-06T06:13:35;4.80;99.90
15113;DHT22;7657;50.140;7.076;2023-04-06T06:16:04;4.70;99.90
15113;DHT22;7657;50.140;7.076;2023-04-06T06:18:31;4.70;99.90
15113;DHT22;7657;50.140;7.076;2023-04-06T06:20:58;4.70;99.90
15113;DHT22;7657;50.140;7.076;2023-04-06T06:23:25;4.80;99.90
15113;DHT22;7657;50.140;7.076;2023-04-06T06:25:52;4.90;99.90
15113;DHT22;7657;50.140;7.076;2023-04-06T06:28:22;5.00;99.90
15113;DHT22;7657;50.140;7.076;2023-04-06T06:30:50;5.00;99.90
15113;DHT22;7657;50.140;7.076;2023-04-06T06:33:18;5.10;99.90
15113;DHT22;7657;50.140;7.076;2023-04-06T06:35:45;5.20;99.90
15113;DHT22;7657;50.140;7.076;2023-04-06T06:38:12;5.30;99.90
15113;DHT22;7657;50.140;7.076;2023-04-06T06:40:40;5.50;99.90
15113;DHT22;7657;50.140;7.076;2023-04-06T06:43:07;5.60;99.90
15113;DHT22;7657;50.140;7.076;2023-04-06T06:45:34;5.70;99.90
15113;DHT22;7657;50.140;7.076;2023-04-06T06:48:01;5.80;99.90
15113;DHT22;7657;50.140;7.076;2023-04-06T06:50:29;5.90;99.90
15113;DHT22;7657;50.140;7.076;2023-04-06T06:52:56;5.90;99.90
15113;DHT22;7657;50.140;7.076;2023-04-06T06:55:23;6.00;99.90
15113;DHT22;7657;50.140;7.076;2023-04-06T06:57:51;6.00;99.90
15113;DHT22;7657;50.140;7.076;2023-04-06T07:00:18;6.10;99.90
15113;DHT22;7657;50.140;7.076;2023-04-06T07:02:46;6.20;99.90
15113;DHT22;7657;50.140;7.076;2023-04-06T07:05:13;6.20;99.90
15113;DHT22;7657;50.140;7.076;2023-04-06T07:07:42;6.20;99.90
15113;DHT22;7657;50.140;7.076;2023-04-06T07:10:09;6.30;99.90
15113;DHT22;7657;50.140;7.076;2023-04-06T07:12:36;6.30;99.90
15113;DHT22;7657;50.140;7.076;2023-04-06T07:15:04;6.40;99.90
15113;DHT22;7657;50.140;7.076;2023-04-06T07:17:31;6.50;99.90
15113;DHT22;7657;50.140;7.076;2023-04-06T07:19:58;6.50;99.90
15113;DHT22;7657;50.140;7.076;2023-04-06T07:22:25;6.60;99.90
15113;DHT22;7657;50.140;7.076;2023-04-06T07:24:54;6.50;99.90
15113;DHT22;7657;50.140;7.076;2023-04-06T07:27:21;6.60;99.90
15113;DHT22;7657;50.140;7.076;2023-04-06T07:29:48;6.60;99.90
15113;DHT22;7657;50.140;7.076;2023-04-06T07:32:15;6.70;99.90
15113;DHT22;7657;50.140;7.076;2023-04-06T07:34:42;6.80;99.90
15113;DHT22;7657;50.140;7.076;2023-04-06T07:37:10;6.90;99.90
15113;DHT22;7657;50.140;7.076;2023-04-06T07:39:37;7.00;99.90
15113;DHT22;7657;50.140;7.076;2023-04-06T07:42:06;7.00;99.90
15113;DHT22;7657;50.140;7.076;2023-04-06T07:44:33;7.10;99.90
15113;DHT22;7657;50.140;7.076;2023-04-06T07:47:00;7.20;99.90
15113;DHT22;7657;50.140;7.076;2023-04-06T07:49:27;7.30;99.90
15113;DHT22;7657;50.140;7.076;2023-04-06T07:51:54;7.40;99.90
15113;DHT22;7657;50.140;7.076;2023-04-06T07:54:21;7.40;99.90
15113;DHT22;7657;50.140;7.076;2023-04-06T07:56:48;7.40;99.90
15113;DHT22;7657;50.140;7.076;2023-04-06T07:59:16;7.40;99.90
15113;DHT22;7657;50.140;7.076;2023-04-06T08:01:43;7.40;99.90
15113;DHT22;7657;50.140;7.076;2023-04-06T08:04:10;7.50;99.90
15113;DHT22;7657;50.140;7.076;2023-04-06T08:06:37;7.40;99.90
15113;DHT22;7657;50.140;7.076;2023-04-06T08:09:04;7.50;99.90
15113;DHT22;7657;50.140;7.076;2023-04-06T08:11:31;7.50;99.90
15113;DHT22;7657;50.140;7.076;2023-04-06T08:13:58;7.50;99.90
15113;DHT22;7657;50.140;7.076;2023-04-06T08:16:26;7.50;99.90
15113;DHT22;7657;50.140;7.076;2023-04-06T08:18:53;7.50;99.90
15113;DHT22;7657;50.140;7.076;2023-04-06T08:21:20;7.50;99.90
15113;DHT22;7657;50.140;7.076;2023-04-06T08:23:47;7.50;99.70
15113;DHT22;7657;50.140;7.076;2023-04-06T08:26:14;7.50;99.90
15113;DHT22;7657;50.140;7.076;2023-04-06T08:28:41;7.60;99.90
15113;DHT22;7657;50.140;7.076;2023-04-06T08:31:08;7.70;99.90
15113;DHT22;7657;50.140;7.076;2023-04-06T08:33:36;7.80;99.90
15113;DHT22;7657;50.140;7.076;2023-04-06T08:36:09;7.80;99.90
15113;DHT22;7657;50.140;7.076;2023-04-06T08:38:36;7.80;99.90
15113;DHT22;7657;50.140;7.076;2023-04-06T08:41:07;7.80;99.90
15113;DHT22;7657;50.140;7.076;2023-04-06T08:43:41;7.90;99.90
15113;DHT22;7657;50.140;7.076;2023-04-06T08:46:09;8.00;99.90
15113;DHT22;7657;50.140;7.076;2023-04-06T08:48:38;8.10;99.90
15113;DHT22;7657;50.140;7.076;2023-04-06T08:51:05;8.30;99.90
15113;DHT22;7657;50.140;7.076;2023-04-06T08:53:32;8.40;99.90
15113;DHT22;7657;50.140;7.076;2023-04-06T08:56:00;8.50;99.90
15113;DHT22;7657;50.140;7.076;2023-04-06T08:58:35;8.60;99.90
15113;DHT22;7657;50.140;7.076;2023-04-06T09:01:05;8.70;99.90
15113;DHT22;7657;50.140;7.076;2023-04-06T09:03:38;8.80;99.90
15113;DHT22;7657;50.140;7.076;2023-04-06T09:06:06;8.90;99.60
15113;DHT22;7657;50.140;7.076;2023-04-06T09:08:33;8.90;99.90
15113;DHT22;7657;50.140;7.076;2023-04-06T09:11:01;8.90;99.90
15113;DHT22;7657;50.140;7.076;2023-04-06T09:13:28;9.00;98.80
15113;DHT22;7657;50.140;7.076;2023-04-06T09:16:01;9.10;99.00
15113;DHT22;7657;50.140;7.076;2023-04-06T09:18:29;9.20;99.70
15113;DHT22;7657;50.140;7.076;2023-04-06T09:21:00;9.10;98.80
15113;DHT22;7657;50.140;7.076;2023-04-06T09:23:27;9.20;99.10
15113;DHT22;7657;50.140;7.076;2023-04-06T09:26:05;9.20;98.80
15113;DHT22;7657;50.140;7.076;2023-04-06T09:28:41;9.30;98.30
15113;DHT22;7657;50.140;7.076;2023-04-06T09:31:08;9.20;98.60
15113;DHT22;7657;50.140;7.076;2023-04-06T09:33:37;9.30;97.80
15113;DHT22;7657;50.140;7.076;2023-04-06T09:36:07;9.30;97.90
15113;DHT22;7657;50.140;7.076;2023-04-06T09:38:37;9.30;97.20
15113;DHT22;7657;50.140;7.076;2023-04-06T09:41:04;9.30;97.30
15113;DHT22;7657;50.140;7.076;2023-04-06T09:43:31;9.30;96.90
15113;DHT22;7657;50.140;7.076;2023-04-06T09:46:00;9.40;98.30
15113;DHT22;7657;50.140;7.076;2023-04-06T09:48:30;9.50;97.10
15113;DHT22;7657;50.140;7.076;2023-04-06T09:51:00;9.60;98.50
15113;DHT22;7657;50.140;7.076;2023-04-06T09:53:31;9.60;97.10
15113;DHT22;7657;50.140;7.076;2023-04-06T09:56:03;9.60;96.90
15113;DHT22;7657;50.140;7.076;2023-04-06T09:58:34;9.70;98.20
15113;DHT22;7657;50.140;7.076;2023-04-06T10:01:06;9.80;97.40
15113;DHT22;7657;50.140;7.076;2023-04-06T10:03:38;9.90;97.70
15113;DHT22;7657;50.140;7.076;2023-04-06T10:06:11;9.90;96.40
15113;DHT22;7657;50.140;7.076;2023-04-06T10:08:40;9.80;95.80
15113;DHT22;7657;50.140;7.076;2023-04-06T10:11:09;9.80;97.30
15113;DHT22;7657;50.140;7.076;2023-04-06T10:13:36;9.80;95.70
15113;DHT22;7657;50.140;7.076;2023-04-06T10:16:04;9.80;95.40
15113;DHT22;7657;50.140;7.076;2023-04-06T10:18:31;9.70;95.80
15113;DHT22;7657;50.140;7.076;2023-04-06T10:21:04;9.80;96.70
15113;DHT22;7657;50.140;7.076;2023-04-06T10:23:34;10.00;97.90
15113;DHT22;7657;50.140;7.076;2023-04-06T10:26:03;10.10;96.80
15113;DHT22;7657;50.140;7.076;2023-04-06T10:28:32;10.10;96.10
15113;DHT22;7657;50.140;7.076;2023-04-06T10:31:01;10.20;97.30
15113;DHT22;7657;50.140;7.076;2023-04-06T10:33:29;10.30;96.60
15113;DHT22;7657;50.140;7.076;2023-04-06T10:35:56;10.20;94.90
15113;DHT22;7657;50.140;7.076;2023-04-06T10:38:33;10.20;96.30
15113;DHT22;7657;50.140;7.076;2023-04-06T10:41:05;10.30;97.20
15113;DHT22;7657;50.140;7.076;2023-04-06T10:43:33;10.30;96.30
15113;DHT22;7657;50.140;7.076;2023-04-06T10:46:02;10.50;97.40
15113;DHT22;7657;50.140;7.076;2023-04-06T10:48:37;10.50;97.00
15113;DHT22;7657;50.140;7.076;2023-04-06T10:51:08;10.60;97.80
15113;DHT22;7657;50.140;7.076;2023-04-06T10:53:35;10.70;97.80
15113;DHT22;7657;50.140;7.076;2023-04-06T10:56:05;10.80;97.40
15113;DHT22;7657;50.140;7.076;2023-04-06T10:58:36;10.90;97.30
15113;DHT22;7657;50.140;7.076;2023-04-06T11:01:03;10.90;96.00
15113;DHT22;7657;50.140;7.076;2023-04-06T11:03:31;11.00;96.30
15113;DHT22;7657;50.140;7.076;2023-04-06T11:05:59;10.90;95.20
15113;DHT22;7657;50.140;7.076;2023-04-06T11:08:27;11.00;95.00
15113;DHT22;7657;50.140;7.076;2023-04-06T11:11:06;10.70;95.00
15113;DHT22;7657;50.140;7.076;2023-04-06T11:13:38;10.90;95.70
15113;DHT22;7657;50.140;7.076;2023-04-06T11:16:06;10.90;95.10
15113;DHT22;7657;50.140;7.076;2023-04-06T11:18:33;11.10;97.50
15113;DHT22;7657;50.140;7.076;2023-04-06T11:21:00;11.20;96.60
15113;DHT22;7657;50.140;7.076;2023-04-06T11:23:27;11.30;97.70
15113;DHT22;7657;50.140;7.076;2023-04-06T11:25:54;11.40;96.40
15113;DHT22;7657;50.140;7.076;2023-04-06T11:28:22;11.40;97.10
15113;DHT22;7657;50.140;7.076;2023-04-06T11:30:49;11.50;96.00
15113;DHT22;7657;50.140;7.076;2023-04-06T11:33:22;11.60;96.10
15113;DHT22;7657;50.140;7.076;2023-04-06T11:35:50;11.70;95.60
15113;DHT22;7657;50.140;7.076;2023-04-06T11:38:18;11.70;95.50
15113;DHT22;7657;50.140;7.076;2023-04-06T11:40:45;11.70;94.40
15113;DHT22;7657;50.140;7.076;2023-04-06T11:43:12;11.60;95.20
15113;DHT22;7657;50.140;7.076;2023-04-06T11:45:41;11.70;96.40
15113;DHT22;7657;50.140;7.076;2023-04-06T11:48:18;11.80;96.20
15113;DHT22;7657;50.140;7.076;2023-04-06T11:50:46;11.80;94.90
15113;DHT22;7657;50.140;7.076;2023-04-06T11:53:14;11.60;94.60
15113;DHT22;7657;50.140;7.076;2023-04-06T11:55:41;11.40;93.80
15113;DHT22;7657;50.140;7.076;2023-04-06T11:58:10;11.50;96.10
15113;DHT22;7657;50.140;7.076;2023-04-06T12:00:37;11.60;95.50
15113;DHT22;7657;50.140;7.076;2023-04-06T12:03:05;11.70;95.80
15113;DHT22;7657;50.140;7.076;2023-04-06T12:05:33;11.80;95.90
15113;DHT22;7657;50.140;7.076;2023-04-06T12:08:00;11.90;96.00
15113;DHT22;7657;50.140;7.076;2023-04-06T12:10:27;12.00;95.70
15113;DHT22;7657;50.140;7.076;2023-04-06T12:12:54;12.00;95.90
15113;DHT22;7657;50.140;7.076;2023-04-06T12:15:21;12.00;95.40
15113;DHT22;7657;50.140;7.076;2023-04-06T12:17:48;12.10;95.10
15113;DHT22;7657;50.140;7.076;2023-04-06T12:20:17;11.90;94.10
15113;DHT22;7657;50.140;7.076;2023-04-06T12:22:44;11.90;94.40
15113;DHT22;7657;50.140;7.076;2023-04-06T12:25:11;12.00;95.70
15113;DHT22;7657;50.140;7.076;2023-04-06T12:27:38;12.00;95.60
15113;DHT22;7657;50.140;7.076;2023-04-06T12:30:07;11.90;95.50
15113;DHT22;7657;50.140;7.076;2023-04-06T12:32:34;11.70;93.60
15113;DHT22;7657;50.140;7.076;2023-04-06T12:35:01;11.50;94.00
15113;DHT22;7657;50.140;7.076;2023-04-06T12:37:29;11.40;95.30
15113;DHT22;7657;50.140;7.076;2023-04-06T12:39:56;11.60;95.60
15113;DHT22;7657;50.140;7.076;2023-04-06T12:42:23;11.70;96.80
15113;DHT22;7657;50.140;7.076;2023-04-06T12:44:50;11.70;96.50
15113;DHT22;7657;50.140;7.076;2023-04-06T12:47:17;11.70;95.70
15113;DHT22;7657;50.140;7.076;2023-04-06T12:49:44;11.90;96.40
15113;DHT22;7657;50.140;7.076;2023-04-06T12:52:11;11.90;95.90
15113;DHT22;7657;50.140;7.076;2023-04-06T12:54:41;12.00;96.10
15113;DHT22;7657;50.140;7.076;2023-04-06T12:57:08;11.90;95.80
15113;DHT22;7657;50.140;7.076;2023-04-06T12:59:35;11.50;95.00
15113;DHT22;7657;50.140;7.076;2023-04-06T13:02:03;11.40;96.00
15113;DHT22;7657;50.140;7.076;2023-04-06T13:04:31;11.30;96.20
15113;DHT22;7657;50.140;7.076;2023-04-06T13:06:57;11.30;96.70
15113;DHT22;7657;50.140;7.076;2023-04-06T13:09:24;11.10;96.10
15113;DHT22;7657;50.140;7.076;2023-04-06T13:11:53;10.90;96.10
15113;DHT22;7657;50.140;7.076;2023-04-06T13:14:20;11.00;98.10
15113;DHT22;7657;50.140;7.076;2023-04-06T13:16:47;11.10;97.60
15113;DHT22;7657;50.140;7.076;2023-04-06T13:19:14;11.30;98.00
15113;DHT22;7657;50.140;7.076;2023-04-06T13:21:41;11.50;98.40
15113;DHT22;7657;50.140;7.076;2023-04-06T13:24:08;11.70;98.90
15113;DHT22;7657;50.140;7.076;2023-04-06T13:26:35;11.70;98.00
15113;DHT22;7657;50.140;7.076;2023-04-06T13:29:03;11.70;97.80
15113;DHT22;7657;50.140;7.076;2023-04-06T13:31:30;11.80;98.40
15113;DHT22;7657;50.140;7.076;2023-04-06T13:33:57;11.80;98.00
15113;DHT22;7657;50.140;7.076;2023-04-06T13:36:25;11.80;98.30
15113;DHT22;7657;50.140;7.076;2023-04-06T13:38:53;11.70;97.30
15113;DHT22;7657;50.140;7.076;2023-04-06T13:41:21;11.40;96.70
15113;DHT22;7657;50.140;7.076;2023-04-06T13:43:48;11.40;97.60
15113;DHT22;7657;50.140;7.076;2023-04-06T13:46:17;11.20;97.90
15113;DHT22;7657;50.140;7.076;2023-04-06T13:48:44;11.30;99.20
15113;DHT22;7657;50.140;7.076;2023-04-06T13:51:13;11.00;99.30
15113;DHT22;7657;50.140;7.076;2023-04-06T13:53:41;11.10;99.90
15113;DHT22;7657;50.140;7.076;2023-04-06T13:56:08;11.20;99.90
15113;DHT22;7657;50.140;7.076;2023-04-06T13:58:35;10.80;99.90
15113;DHT22;7657;50.140;7.076;2023-04-06T14:01:03;10.50;99.90
15113;DHT22;7657;50.140;7.076;2023-04-06T14:03:31;10.30;99.90
15113;DHT22;7657;50.140;7.076;2023-04-06T14:05:58;10.30;99.90
15113;DHT22;7657;50.140;7.076;2023-04-06T14:08:25;10.10;99.90
15113;DHT22;7657;50.140;7.076;2023-04-06T14:10:52;10.10;99.90
15113;DHT22;7657;50.140;7.076;2023-04-06T14:13:20;10.20;99.90
15113;DHT22;7657;50.140;7.076;2023-04-06T14:15:53;10.40;99.90
15113;DHT22;7657;50.140;7.076;2023-04-06T14:18:20;10.50;99.90
15113;DHT22;7657;50.140;7.076;2023-04-06T14:20:55;10.60;99.90
15113;DHT22;7657;50.140;7.076;2023-04-06T14:23:22;10.40;99.90
15113;DHT22;7657;50.140;7.076;2023-04-06T14:25:51;10.30;99.90
15113;DHT22;7657;50.140;7.076;2023-04-06T14:28:20;10.50;99.90
15113;DHT22;7657;50.140;7.076;2023-04-06T14:30:47;10.50;99.90
15113;DHT22;7657;50.140;7.076;2023-04-06T14:33:14;10.60;99.90
15113;DHT22;7657;50.140;7.076;2023-04-06T14:35:42;10.60;99.90
15113;DHT22;7657;50.140;7.076;2023-04-06T14:38:10;10.70;99.90
15113;DHT22;7657;50.140;7.076;2023-04-06T14:40:37;10.80;99.90
15113;DHT22;7657;50.140;7.076;2023-04-06T14:43:04;10.80;99.90
15113;DHT22;7657;50.140;7.076;2023-04-06T14:45:33;11.00;99.90
15113;DHT22;7657;50.140;7.076;2023-04-06T14:48:00;10.80;99.90
15113;DHT22;7657;50.140;7.076;2023-04-06T14:50:27;10.70;99.90
15113;DHT22;7657;50.140;7.076;2023-04-06T14:52:54;10.80;99.90
15113;DHT22;7657;50.140;7.076;2023-04-06T14:55:22;10.80;99.90
15113;DHT22;7657;50.140;7.076;2023-04-06T14:57:49;10.70;99.90
15113;DHT22;7657;50.140;7.076;2023-04-06T15:00:17;10.40;99.90
15113;DHT22;7657;50.140;7.076;2023-04-06T15:02:44;10.50;99.90
15113;DHT22;7657;50.140;7.076;2023-04-06T15:05:11;10.60;99.90
15113;DHT22;7657;50.140;7.076;2023-04-06T15:07:37;10.60;99.90
15113;DHT22;7657;50.140;7.076;2023-04-06T15:10:06;10.60;99.90
15113;DHT22;7657;50.140;7.076;2023-04-06T15:12:35;10.60;99.90
15113;DHT22;7657;50.140;7.076;2023-04-06T15:15:03;10.50;99.90
15113;DHT22;7657;50.140;7.076;2023-04-06T15:17:30;10.60;99.90
15113;DHT22;7657;50.140;7.076;2023-04-06T15:19:57;10.50;99.90
15113;DHT22;7657;50.140;7.076;2023-04-06T15:22:24;10.50;99.90
15113;DHT22;7657;50.140;7.076;2023-04-06T15:24:51;10.50;99.90
15113;DHT22;7657;50.140;7.076;2023-04-06T15:27:18;10.40;99.90
15113;DHT22;7657;50.140;7.076;2023-04-06T15:29:46;10.30;99.90
15113;DHT22;7657;50.140;7.076;2023-04-06T15:32:13;10.40;99.90
15113;DHT22;7657;50.140;7.076;2023-04-06T15:34:40;10.40;99.90
15113;DHT22;7657;50.140;7.076;2023-04-06T15:37:07;10.30;99.90
15113;DHT22;7657;50.140;7.076;2023-04-06T15:39:34;10.30;99.90
15113;DHT22;7657;50.140;7.076;2023-04-06T15:42:02;10.30;99.90
15113;DHT22;7657;50.140;7.076;2023-04-06T15:44:29;10.20;99.90
15113;DHT22;7657;50.140;7.076;2023-04-06T15:46:57;10.10;99.90
15113;DHT22;7657;50.140;7.076;2023-04-06T15:49:24;10.10;99.90
15113;DHT22;7657;50.140;7.076;2023-04-06T15:51:51;10.10;99.90
15113;DHT22;7657;50.140;7.076;2023-04-06T15:54:18;10.10;99.90
15113;DHT22;7657;50.140;7.076;2023-04-06T15:56:46;10.00;99.90
15113;DHT22;7657;50.140;7.076;2023-04-06T15:59:13;10.00;99.90